Time;durP1;ratioP1;P1;durP2;ratioP2;P2;SDS_P1;SDS_P2;PMS_P1;PMS_P2;Temp;Humidity;BMP_temperature;BMP_pressure;BME280_temperature;BME280_humidity;BME280_pressure;Samples;Min_cycle;Max_cycle;Signal;HPM_P1;HPM_P2
2021/04/25 00:00:33;;;;;;;14.57;5.95;;;4.10;80.50;;;;;;4938468;29;20539;-86
2021/04/25 00:02:58;;;;;;;13.07;7.25;;;4.10;80.70;;;;;;4951465;29;20118;-87
2021/04/25 00:05:24;;;;;;;17.05;8.10;;;4.00;80.90;;;;;;4969653;28;20032;-86
2021/04/25 00:07:49;;;;;;;15.60;5.40;;;4.10;81.10;;;;;;4946529;28;20540;-87
2021/04/25 00:10:17;;;;;;;11.68;4.90;;;4.10;81.80;;;;;;4958622;28;20058;-86
2021/04/25 00:12:45;;;;;;;12.52;5.43;;;4.10;81.30;;;;;;4945976;29;20058;-87
2021/04/25 00:15:23;;;;;;;17.40;6.18;;;4.20;81.50;;;;;;4941607;29;20052;-86
2021/04/25 00:17:56;;;;;;;16.70;7.30;;;4.30;81.60;;;;;;4945126;29;20484;-87
2021/04/25 00:20:22;;;;;;;12.25;5.97;;;4.40;81.60;;;;;;4941453;29;20035;-87
2021/04/25 00:22:47;;;;;;;13.98;5.50;;;4.40;81.60;;;;;;4962766;28;20093;-87
2021/04/25 00:25:15;;;;;;;11.18;5.20;;;4.50;81.70;;;;;;4975704;28;20464;-87
2021/04/25 00:27:41;;;;;;;14.38;6.00;;;4.60;81.70;;;;;;4967879;28;20063;-86
2021/04/25 00:30:10;;;;;;;10.93;5.47;;;4.70;81.60;;;;;;4976266;28;20502;-87
2021/04/25 00:32:38;;;;;;;13.70;5.78;;;4.70;81.60;;;;;;4947793;28;20028;-87
2021/04/25 00:35:05;;;;;;;12.00;6.22;;;4.80;81.90;;;;;;4947003;28;20086;-87
2021/04/25 00:37:30;;;;;;;12.75;5.13;;;4.90;81.70;;;;;;4953353;28;20102;-87
2021/04/25 00:39:58;;;;;;;14.13;5.28;;;4.90;81.70;;;;;;4949030;29;20063;-87
2021/04/25 00:42:24;;;;;;;18.95;6.28;;;4.90;81.70;;;;;;4944777;28;20023;-87
2021/04/25 00:44:51;;;;;;;11.60;5.57;;;4.90;81.70;;;;;;4952710;28;20110;-87
2021/04/25 00:47:17;;;;;;;15.30;6.50;;;5.00;81.90;;;;;;4957214;28;20495;-87
2021/04/25 00:49:42;;;;;;;16.23;6.55;;;5.00;82.10;;;;;;4957357;28;20035;-86
2021/04/25 00:52:09;;;;;;;15.80;6.63;;;5.10;82.10;;;;;;4956389;28;20027;-86
2021/04/25 00:54:39;;;;;;;12.70;5.65;;;5.10;82.00;;;;;;4945587;28;20483;-86
2021/04/25 00:57:05;;;;;;;15.45;5.68;;;5.00;82.00;;;;;;4968388;28;20027;-86
2021/04/25 00:59:31;;;;;;;15.23;6.50;;;5.10;82.50;;;;;;4959957;28;20034;-87
2021/04/25 01:01:57;;;;;;;20.92;6.68;;;5.10;82.50;;;;;;4937284;28;20032;-87
2021/04/25 01:04:26;;;;;;;12.55;5.78;;;5.10;82.50;;;;;;4940140;28;20384;-87
2021/04/25 01:06:55;;;;;;;11.85;5.85;;;5.10;82.50;;;;;;4934472;29;20039;-86
2021/04/25 01:09:21;;;;;;;14.52;6.07;;;5.10;82.50;;;;;;4952605;29;20506;-87
2021/04/25 01:11:46;;;;;;;13.63;5.38;;;5.10;82.40;;;;;;4938163;28;20028;-86
2021/04/25 01:14:14;;;;;;;13.77;6.07;;;5.10;82.50;;;;;;4940726;29;20047;-86
2021/04/25 01:16:43;;;;;;;10.43;4.88;;;5.10;82.40;;;;;;4963194;28;20039;-86
2021/04/25 01:19:08;;;;;;;11.90;5.57;;;5.10;82.40;;;;;;4946861;28;20027;-87
2021/04/25 01:21:36;;;;;;;15.93;5.88;;;5.10;82.40;;;;;;4949076;29;20034;-87
2021/04/25 01:24:04;;;;;;;12.77;5.63;;;5.10;82.20;;;;;;4970346;28;20112;-87
2021/04/25 01:26:30;;;;;;;11.05;5.40;;;5.00;82.30;;;;;;4939508;29;20081;-87
2021/04/25 01:28:56;;;;;;;12.80;5.57;;;5.00;82.50;;;;;;4938828;29;20137;-87
2021/04/25 01:31:21;;;;;;;10.07;4.85;;;4.90;82.50;;;;;;4946749;29;20086;-87
2021/04/25 01:33:47;;;;;;;12.90;5.53;;;4.90;82.70;;;;;;4942686;29;20031;-86
2021/04/25 01:36:13;;;;;;;14.57;5.28;;;4.90;82.90;;;;;;4972150;28;20170;-86
2021/04/25 01:38:38;;;;;;;10.07;4.25;;;4.90;82.90;;;;;;4965065;28;20502;-87
2021/04/25 01:41:04;;;;;;;12.60;5.50;;;4.80;82.80;;;;;;4961037;28;20035;-87
2021/04/25 01:43:30;;;;;;;13.63;4.93;;;4.80;82.90;;;;;;4956932;28;20036;-86
2021/04/25 01:45:58;;;;;;;14.65;5.35;;;4.70;82.90;;;;;;4939747;29;20171;-87
2021/04/25 01:48:23;;;;;;;16.30;5.68;;;4.60;83.00;;;;;;4947483;29;20031;-87
2021/04/25 01:50:49;;;;;;;11.35;5.13;;;4.60;83.20;;;;;;4942809;28;20039;-87
2021/04/25 01:53:14;;;;;;;9.57;4.55;;;4.50;83.30;;;;;;4971783;28;20498;-87
2021/04/25 01:55:41;;;;;;;10.75;4.57;;;4.50;83.40;;;;;;4942717;29;20027;-87
2021/04/25 01:58:09;;;;;;;12.35;4.20;;;4.50;83.40;;;;;;4971551;28;20518;-86
2021/04/25 02:00:36;;;;;;;13.40;4.85;;;4.50;83.40;;;;;;4949265;29;20091;-87
2021/04/25 02:03:04;;;;;;;10.25;4.60;;;4.50;83.40;;;;;;4971830;28;20565;-86
2021/04/25 02:05:30;;;;;;;10.63;4.20;;;4.40;83.20;;;;;;4956204;28;20066;-86
2021/04/25 02:08:01;;;;;;;10.82;4.32;;;4.40;83.10;;;;;;4950531;29;20062;-86
2021/04/25 02:10:28;;;;;;;13.70;4.88;;;4.40;83.20;;;;;;4972018;28;20078;-87
2021/04/25 02:12:57;;;;;;;10.88;4.25;;;4.30;83.30;;;;;;4952263;28;20027;-86
2021/04/25 02:15:24;;;;;;;7.28;3.40;;;4.30;83.40;;;;;;4942498;29;20063;-87
2021/04/25 02:17:50;;;;;;;9.88;3.42;;;4.20;83.40;;;;;;4952198;28;20031;-86
2021/04/25 02:20:18;;;;;;;8.63;4.03;;;4.30;83.30;;;;;;4948693;29;20082;-86
2021/04/25 02:22:48;;;;;;;7.78;3.70;;;4.30;83.20;;;;;;4952964;28;20024;-86
2021/04/25 02:25:17;;;;;;;11.93;3.80;;;4.30;83.00;;;;;;4943792;29;20511;-86
2021/04/25 02:27:45;;;;;;;12.38;3.83;;;4.30;82.90;;;;;;4952379;29;20360;-87
2021/04/25 02:30:16;;;;;;;9.32;3.33;;;4.30;82.90;;;;;;4962120;28;20024;-86
2021/04/25 02:32:42;;;;;;;13.93;4.03;;;4.30;82.90;;;;;;4968899;28;20038;-86
2021/04/25 02:35:10;;;;;;;10.05;3.28;;;4.30;82.70;;;;;;4970720;28;20039;-86
2021/04/25 02:37:36;;;;;;;10.52;3.10;;;4.40;83.20;;;;;;4942343;29;20020;-87
2021/04/25 02:40:08;;;;;;;13.35;4.05;;;4.40;82.30;;;;;;4959355;28;20038;-86
2021/04/25 02:42:37;;;;;;;8.45;3.13;;;4.30;82.10;;;;;;4936213;29;20028;-86
2021/04/25 02:45:04;;;;;;;6.10;2.63;;;4.30;82.20;;;;;;4939497;29;20032;-86
2021/04/25 02:47:32;;;;;;;8.55;2.92;;;4.30;82.10;;;;;;4970123;28;20038;-86
2021/04/25 02:50:00;;;;;;;6.60;2.85;;;4.20;82.10;;;;;;4955824;28;20035;-86
2021/04/25 02:52:26;;;;;;;9.10;2.72;;;4.30;82.10;;;;;;4966315;28;20043;-87
2021/04/25 02:54:53;;;;;;;7.43;2.38;;;4.20;82.00;;;;;;4966376;28;20098;-86
2021/04/25 02:57:22;;;;;;;8.60;3.10;;;4.10;81.90;;;;;;4955816;28;20106;-86
2021/04/25 02:59:48;;;;;;;11.18;3.47;;;4.10;82.00;;;;;;4949773;29;20119;-86
2021/04/25 03:02:14;;;;;;;9.77;2.65;;;4.00;82.00;;;;;;4937529;29;20093;-86
2021/04/25 03:04:39;;;;;;;8.45;3.00;;;4.00;82.10;;;;;;4940067;29;20035;-87
2021/04/25 03:07:05;;;;;;;8.55;2.70;;;4.00;82.20;;;;;;4952462;29;20062;-87
2021/04/25 03:09:31;;;;;;;9.27;2.45;;;3.90;82.20;;;;;;4965994;28;20071;-87
2021/04/25 03:11:59;;;;;;;9.55;2.35;;;3.90;82.20;;;;;;4937026;29;20484;-86
2021/04/25 03:14:34;;;;;;;7.70;2.30;;;4.00;82.20;;;;;;4952550;29;20077;-87
2021/04/25 03:16:59;;;;;;;8.40;2.13;;;4.00;82.10;;;;;;4935480;29;20087;-87
2021/04/25 03:19:26;;;;;;;8.10;2.42;;;4.00;82.00;;;;;;4942454;29;20035;-86
2021/04/25 03:21:51;;;;;;;9.93;2.72;;;4.00;81.80;;;;;;4952127;28;20019;-87
2021/04/25 03:24:19;;;;;;;7.47;2.45;;;4.10;81.70;;;;;;4935139;28;20039;-86
2021/04/25 03:26:45;;;;;;;6.00;2.17;;;4.10;81.60;;;;;;4944301;28;20399;-86
2021/04/25 03:29:12;;;;;;;9.43;2.72;;;4.10;81.50;;;;;;4959119;28;20031;-87
2021/04/25 03:31:40;;;;;;;8.25;2.60;;;4.20;81.30;;;;;;4935561;29;20435;-87
2021/04/25 03:34:07;;;;;;;9.57;2.55;;;4.20;81.30;;;;;;4947461;29;20532;-87
2021/04/25 03:36:33;;;;;;;10.32;2.75;;;4.20;81.20;;;;;;4943734;29;20028;-87
2021/04/25 03:39:01;;;;;;;7.70;2.30;;;4.30;81.20;;;;;;4948747;29;20035;-87
2021/04/25 03:41:34;;;;;;;9.07;2.00;;;4.30;81.10;;;;;;4955592;28;20035;-87
2021/04/25 03:44:01;;;;;;;5.97;1.90;;;4.30;81.00;;;;;;4951218;29;20028;-86
2021/04/25 03:46:26;;;;;;;7.35;1.98;;;4.30;80.90;;;;;;4950958;29;20027;-87
2021/04/25 03:48:57;;;;;;;10.00;2.40;;;4.30;80.90;;;;;;4944945;29;20060;-87
2021/04/25 03:51:25;;;;;;;6.13;2.38;;;4.40;80.80;;;;;;4937966;29;20510;-88
2021/04/25 03:53:51;;;;;;;5.65;2.15;;;4.40;80.70;;;;;;4948779;29;20129;-86
2021/04/25 03:56:18;;;;;;;9.43;3.00;;;4.40;80.70;;;;;;4951501;28;20027;-86
2021/04/25 03:58:44;;;;;;;6.43;2.10;;;4.40;80.70;;;;;;4952456;28;20119;-87
2021/04/25 04:01:11;;;;;;;6.40;2.05;;;4.40;80.70;;;;;;4953549;29;20122;-87
2021/04/25 04:03:38;;;;;;;6.90;1.55;;;4.40;80.60;;;;;;4943344;28;20038;-87
2021/04/25 04:06:04;;;;;;;9.38;2.67;;;4.50;80.50;;;;;;4944053;29;20059;-87
2021/04/25 04:08:32;;;;;;;8.73;2.45;;;4.50;80.40;;;;;;4946593;28;20038;-87
2021/04/25 04:10:57;;;;;;;11.23;2.60;;;4.50;80.30;;;;;;4951246;28;20079;-87
2021/04/25 04:13:28;;;;;;;7.93;2.95;;;4.60;80.40;;;;;;4941171;29;20047;-87
2021/04/25 04:15:54;;;;;;;11.52;2.60;;;4.50;80.30;;;;;;4938780;29;20042;-88
2021/04/25 04:18:22;;;;;;;8.90;2.58;;;4.60;80.40;;;;;;4937735;29;20028;-88
2021/04/25 04:20:50;;;;;;;6.47;2.35;;;4.60;80.40;;;;;;4951233;29;20015;-87
2021/04/25 04:23:18;;;;;;;8.02;2.47;;;4.60;80.30;;;;;;4952036;28;20027;-88
2021/04/25 04:25:46;;;;;;;13.80;3.20;;;4.60;80.30;;;;;;4967971;28;20032;-88
2021/04/25 04:28:12;;;;;;;11.57;2.30;;;4.60;80.00;;;;;;4944970;28;20030;-88
2021/04/25 04:30:37;;;;;;;8.25;2.38;;;4.60;79.90;;;;;;4954680;28;20035;-87
2021/04/25 04:33:06;;;;;;;5.90;2.40;;;4.70;79.80;;;;;;4968016;28;20058;-87
2021/04/25 04:35:32;;;;;;;13.43;4.75;;;4.70;79.80;;;;;;4967397;28;20035;-88
2021/04/25 04:37:57;;;;;;;9.82;2.60;;;4.70;79.60;;;;;;4942852;28;20034;-87
2021/04/25 04:40:26;;;;;;;7.18;2.40;;;4.70;79.60;;;;;;4955295;28;20031;-88
2021/04/25 04:42:54;;;;;;;8.95;2.53;;;4.80;79.50;;;;;;4939980;29;20126;-87
2021/04/25 04:45:20;;;;;;;8.00;2.10;;;4.80;79.40;;;;;;4947592;28;20024;-87
2021/04/25 04:47:47;;;;;;;4.85;1.55;;;4.80;79.40;;;;;;4940315;29;20040;-88
2021/04/25 04:50:15;;;;;;;7.95;2.25;;;4.90;79.30;;;;;;4946503;29;20108;-87
2021/04/25 04:52:43;;;;;;;9.13;2.00;;;4.90;79.00;;;;;;4943938;29;20046;-88
2021/04/25 04:55:09;;;;;;;7.78;2.42;;;4.90;78.80;;;;;;4958420;28;20047;-87
2021/04/25 04:57:41;;;;;;;7.07;1.35;;;4.90;78.60;;;;;;4973365;28;20023;-87
2021/04/25 05:00:07;;;;;;;10.60;1.83;;;5.00;78.40;;;;;;4953310;28;20083;-88
2021/04/25 05:02:38;;;;;;;7.10;1.88;;;5.00;78.30;;;;;;4949182;29;20118;-87
2021/04/25 05:05:12;;;;;;;6.53;1.80;;;5.10;78.20;;;;;;4940721;28;20526;-87
2021/04/25 05:07:37;;;;;;;9.48;1.92;;;5.10;77.90;;;;;;4950926;28;20036;-88
2021/04/25 05:10:03;;;;;;;5.68;1.35;;;5.10;77.70;;;;;;4944330;29;20500;-87
2021/04/25 05:12:31;;;;;;;5.20;1.73;;;5.20;77.60;;;;;;4938743;29;20024;-88
2021/04/25 05:15:04;;;;;;;4.75;1.40;;;5.20;77.50;;;;;;4940908;29;20098;-87
2021/04/25 05:17:29;;;;;;;4.00;1.63;;;5.20;77.40;;;;;;4961710;28;20506;-87
2021/04/25 05:19:57;;;;;;;4.30;1.25;;;5.30;77.20;;;;;;4947276;29;20063;-88
2021/04/25 05:22:25;;;;;;;5.07;1.00;;;5.30;76.90;;;;;;4938442;29;20498;-88
2021/04/25 05:24:54;;;;;;;10.50;1.35;;;5.30;76.80;;;;;;4942031;29;20069;-88
2021/04/25 05:27:22;;;;;;;8.93;1.33;;;5.40;76.70;;;;;;4948115;29;20099;-87
2021/04/25 05:29:48;;;;;;;4.88;1.10;;;5.50;76.50;;;;;;4949496;28;20506;-87
2021/04/25 05:32:15;;;;;;;5.88;0.90;;;5.50;76.00;;;;;;4939781;29;20066;-88
2021/04/25 05:34:44;;;;;;;3.88;0.80;;;5.50;75.60;;;;;;4946830;29;20044;-87
2021/04/25 05:37:12;;;;;;;4.60;0.80;;;5.50;75.40;;;;;;4949212;29;20028;-88
2021/04/25 05:39:37;;;;;;;4.03;0.75;;;5.60;75.00;;;;;;4943086;29;20063;-86
2021/04/25 05:42:03;;;;;;;8.38;1.20;;;5.60;74.80;;;;;;4951103;29;20463;-87
2021/04/25 05:44:30;;;;;;;5.03;0.57;;;5.60;74.60;;;;;;4957195;28;20039;-88
2021/04/25 05:46:58;;;;;;;3.97;0.75;;;5.70;75.20;;;;;;4941007;29;20028;-88
2021/04/25 05:49:26;;;;;;;4.88;0.65;;;5.70;74.50;;;;;;4955427;28;20038;-88
2021/04/25 05:51:51;;;;;;;7.38;0.70;;;5.70;74.20;;;;;;4959618;28;20032;-88
2021/04/25 05:54:17;;;;;;;7.68;0.88;;;5.80;73.90;;;;;;4940853;29;20062;-90
2021/04/25 05:56:42;;;;;;;5.40;0.82;;;5.80;73.30;;;;;;4939824;29;20031;-88
2021/04/25 05:59:08;;;;;;;5.93;1.10;;;5.80;72.50;;;;;;4964783;28;20121;-87
2021/04/25 06:01:33;;;;;;;7.25;1.10;;;5.80;72.30;;;;;;4942709;29;20058;-88
2021/04/25 06:04:00;;;;;;;6.60;0.80;;;5.80;72.00;;;;;;4936152;28;20592;-88
2021/04/25 06:06:26;;;;;;;12.75;0.98;;;5.80;72.40;;;;;;4936303;29;20498;-89
2021/04/25 06:08:56;;;;;;;5.90;0.80;;;5.90;72.50;;;;;;4939113;28;20036;-89
2021/04/25 06:11:21;;;;;;;4.75;0.90;;;6.00;72.40;;;;;;4957135;28;20051;-88
2021/04/25 06:13:47;;;;;;;11.95;1.13;;;6.00;72.20;;;;;;4946769;29;20038;-89
2021/04/25 06:16:12;;;;;;;8.02;1.23;;;6.00;72.10;;;;;;4952262;28;20055;-88
2021/04/25 06:18:38;;;;;;;8.45;1.50;;;6.10;72.20;;;;;;4956438;28;20039;-89
2021/04/25 06:21:03;;;;;;;5.03;1.00;;;6.10;71.70;;;;;;4937525;29;20027;-88
2021/04/25 06:23:32;;;;;;;3.63;0.90;;;6.20;71.50;;;;;;4945586;29;20038;-89
2021/04/25 06:25:57;;;;;;;6.65;0.90;;;6.20;71.60;;;;;;4944923;29;20035;-89
2021/04/25 06:28:27;;;;;;;6.65;0.95;;;6.20;71.70;;;;;;4938314;29;20493;-88
2021/04/25 06:30:53;;;;;;;5.90;0.95;;;6.30;70.80;;;;;;4961659;28;20399;-88
2021/04/25 06:33:18;;;;;;;9.90;1.00;;;6.30;71.00;;;;;;4951362;28;20500;-88
2021/04/25 06:35:46;;;;;;;9.48;0.90;;;6.30;70.40;;;;;;4958945;28;20091;-88
2021/04/25 06:38:11;;;;;;;4.15;0.82;;;6.40;70.20;;;;;;4968642;28;20056;-88
2021/04/25 06:40:37;;;;;;;4.18;0.65;;;6.40;70.00;;;;;;4942410;28;20028;-88
2021/04/25 06:43:04;;;;;;;5.53;1.10;;;6.50;69.10;;;;;;4957870;28;20035;-88
2021/04/25 06:45:31;;;;;;;6.93;1.00;;;6.40;68.60;;;;;;4961157;28;20091;-88
2021/04/25 06:47:57;;;;;;;6.65;0.98;;;6.40;68.50;;;;;;4942699;28;20122;-89
2021/04/25 06:50:25;;;;;;;6.70;0.60;;;6.40;68.20;;;;;;4947957;29;20067;-88
2021/04/25 06:52:50;;;;;;;5.93;0.75;;;6.50;68.20;;;;;;4955916;28;20042;-89
2021/04/25 06:55:19;;;;;;;5.07;1.00;;;6.50;68.00;;;;;;4952191;28;20039;-89
2021/04/25 06:57:48;;;;;;;4.32;1.05;;;6.50;68.00;;;;;;4936070;29;20074;-88
2021/04/25 07:00:20;;;;;;;6.70;0.90;;;6.60;68.00;;;;;;4940301;29;20033;-88
2021/04/25 07:02:45;;;;;;;10.52;1.30;;;6.60;67.80;;;;;;4940869;29;20023;-89
2021/04/25 07:05:11;;;;;;;10.73;1.35;;;6.60;67.90;;;;;;4958847;28;20085;-89
2021/04/25 07:07:41;;;;;;;3.00;0.68;;;6.70;67.90;;;;;;4942122;28;20472;-88
2021/04/25 07:10:09;;;;;;;9.10;1.05;;;6.80;67.80;;;;;;4936364;29;20103;-87
2021/04/25 07:12:37;;;;;;;6.72;0.88;;;6.80;67.10;;;;;;4946438;29;20518;-89
2021/04/25 07:15:07;;;;;;;12.32;1.17;;;6.80;67.20;;;;;;4939447;28;20135;-88
2021/04/25 07:17:36;;;;;;;6.13;0.75;;;6.90;67.20;;;;;;4939978;29;20031;-88
2021/04/25 07:20:02;;;;;;;4.40;0.80;;;6.90;66.60;;;;;;4945052;28;20068;-88
2021/04/25 07:22:30;;;;;;;8.45;1.00;;;7.00;66.80;;;;;;4949390;28;20027;-89
2021/04/25 07:24:58;;;;;;;4.82;1.10;;;7.00;67.10;;;;;;4951794;28;20175;-89
2021/04/25 07:27:26;;;;;;;5.40;0.80;;;7.10;67.10;;;;;;4954436;28;20043;-88
2021/04/25 07:29:52;;;;;;;6.15;0.63;;;7.30;66.90;;;;;;4958398;28;20023;-88
2021/04/25 07:32:20;;;;;;;7.43;1.23;;;7.40;66.40;;;;;;4951693;28;20065;-88
2021/04/25 07:34:46;;;;;;;7.18;1.25;;;7.50;66.30;;;;;;4946992;28;20046;-87
2021/04/25 07:37:14;;;;;;;8.18;0.93;;;7.60;65.80;;;;;;4948017;28;20051;-88
2021/04/25 07:39:46;;;;;;;6.15;0.70;;;7.60;65.00;;;;;;4946484;28;20031;-88
2021/04/25 07:42:12;;;;;;;9.05;1.00;;;7.60;64.80;;;;;;4948056;28;20400;-88
2021/04/25 07:44:40;;;;;;;4.97;0.60;;;7.60;64.60;;;;;;4938092;29;20035;-88
2021/04/25 07:47:11;;;;;;;10.18;0.60;;;7.60;63.90;;;;;;4948472;29;20030;-89
2021/04/25 07:49:40;;;;;;;10.20;0.90;;;7.60;63.10;;;;;;4946871;28;20034;-87
2021/04/25 07:52:16;;;;;;;5.88;0.88;;;7.60;63.90;;;;;;4938599;29;20024;-88
2021/04/25 07:54:44;;;;;;;6.47;0.63;;;7.60;63.60;;;;;;4950672;28;20035;-88
2021/04/25 07:57:12;;;;;;;5.65;0.80;;;7.70;63.10;;;;;;4954198;28;20110;-87
2021/04/25 07:59:40;;;;;;;6.68;0.70;;;7.70;63.70;;;;;;4953954;28;20030;-88
2021/04/25 08:02:07;;;;;;;8.32;0.73;;;7.70;63.40;;;;;;4946127;28;20031;-88
2021/04/25 08:04:32;;;;;;;6.38;0.60;;;7.80;62.90;;;;;;4946318;28;20095;-88
2021/04/25 08:06:58;;;;;;;7.63;0.60;;;7.90;63.10;;;;;;4943784;28;20023;-88
2021/04/25 08:09:23;;;;;;;7.13;0.90;;;8.00;63.10;;;;;;4957706;28;20058;-88
2021/04/25 08:11:49;;;;;;;5.28;0.50;;;8.00;63.20;;;;;;4940799;29;20086;-88
2021/04/25 08:14:25;;;;;;;5.93;0.70;;;8.20;63.50;;;;;;4944377;29;20024;-88
2021/04/25 08:16:53;;;;;;;7.95;0.70;;;8.30;63.00;;;;;;4950354;28;20031;-88
2021/04/25 08:19:18;;;;;;;4.10;0.40;;;8.30;62.10;;;;;;4953930;28;20027;-88
2021/04/25 08:21:49;;;;;;;5.97;0.60;;;8.30;62.00;;;;;;4941001;29;20096;-88
2021/04/25 08:24:18;;;;;;;6.32;0.40;;;8.40;62.10;;;;;;4957241;28;20036;-88
2021/04/25 08:26:44;;;;;;;8.27;0.70;;;8.30;61.70;;;;;;4944264;29;20114;-88
2021/04/25 08:29:10;;;;;;;5.28;0.60;;;8.40;61.80;;;;;;4940546;29;20060;-88
2021/04/25 08:31:36;;;;;;;7.63;0.80;;;8.50;61.40;;;;;;4968999;28;20031;-88
2021/04/25 08:34:01;;;;;;;5.35;0.70;;;8.60;61.90;;;;;;4952254;28;20058;-88
2021/04/25 08:36:32;;;;;;;7.30;0.88;;;8.70;61.70;;;;;;4952111;28;20028;-88
2021/04/25 08:38:58;;;;;;;7.30;0.75;;;8.90;61.60;;;;;;4946181;28;20031;-87
2021/04/25 08:41:25;;;;;;;5.75;0.40;;;8.90;61.20;;;;;;4958143;28;20599;-88
2021/04/25 08:43:50;;;;;;;5.78;0.70;;;8.80;59.90;;;;;;4957387;28;20066;-88
2021/04/25 08:46:19;;;;;;;6.70;0.73;;;8.80;60.20;;;;;;4941041;29;20114;-88
2021/04/25 08:48:51;;;;;;;5.07;0.40;;;8.90;60.80;;;;;;4959092;28;20038;-88
2021/04/25 08:51:18;;;;;;;7.27;0.60;;;9.00;60.10;;;;;;4959504;28;20035;-87
2021/04/25 08:53:45;;;;;;;4.57;0.50;;;9.10;60.30;;;;;;4957990;28;20299;-87
2021/04/25 08:56:11;;;;;;;3.88;0.50;;;9.10;59.50;;;;;;4951258;28;20167;-88
2021/04/25 08:58:37;;;;;;;7.80;0.60;;;9.10;59.80;;;;;;4951290;28;20471;-88
2021/04/25 09:01:04;;;;;;;6.82;0.60;;;9.20;59.70;;;;;;4974581;28;20039;-88
2021/04/25 09:03:30;;;;;;;5.25;0.40;;;9.30;59.40;;;;;;4955322;28;20108;-88
2021/04/25 09:05:58;;;;;;;4.25;0.60;;;9.30;58.60;;;;;;4963422;28;20027;-88
2021/04/25 09:08:45;;;;;;;4.25;0.50;;;9.30;59.00;;;;;;4947486;29;20418;-87
2021/04/25 09:11:36;;;;;;;4.85;0.50;;;9.30;58.90;;;;;;4947947;29;20491;-87
2021/04/25 09:14:16;;;;;;;5.72;0.50;;;9.40;58.70;;;;;;4955329;28;20027;-86
2021/04/25 09:16:46;;;;;;;6.47;0.50;;;9.40;58.50;;;;;;4956525;28;20032;-87
2021/04/25 09:19:16;;;;;;;8.85;0.40;;;9.50;58.30;;;;;;4958918;28;20032;-87
2021/04/25 09:22:01;;;;;;;6.50;0.40;;;9.50;58.10;;;;;;4946796;29;20035;-88
2021/04/25 09:24:31;;;;;;;3.67;0.50;;;9.70;58.40;;;;;;4960398;28;20035;-89
2021/04/25 09:26:58;;;;;;;5.35;0.60;;;9.70;56.80;;;;;;4966945;28;20086;-88
2021/04/25 09:29:26;;;;;;;5.00;0.30;;;9.80;56.90;;;;;;4955283;28;20031;-86
2021/04/25 09:31:56;;;;;;;7.13;1.08;;;9.80;56.80;;;;;;4941158;29;20028;-87
2021/04/25 09:34:29;;;;;;;6.32;0.60;;;10.00;56.80;;;;;;4924527;29;20069;-87
2021/04/25 09:36:56;;;;;;;5.40;0.85;;;10.30;56.90;;;;;;4946431;29;20377;-87
2021/04/25 09:39:23;;;;;;;6.35;0.40;;;10.30;55.50;;;;;;4953855;28;20055;-87
2021/04/25 09:41:50;;;;;;;2.55;0.30;;;10.20;55.50;;;;;;4940889;29;20043;-86
2021/04/25 09:44:36;;;;;;;3.78;0.50;;;10.10;55.60;;;;;;4940916;29;20031;-87
2021/04/25 09:47:04;;;;;;;7.40;0.65;;;10.00;55.70;;;;;;4958426;28;20059;-87
2021/04/25 09:49:49;;;;;;;5.07;0.60;;;10.00;55.70;;;;;;4940629;29;20032;-86
2021/04/25 09:52:35;;;;;;;6.68;0.50;;;10.00;55.50;;;;;;4970681;28;20129;-87
2021/04/25 09:55:17;;;;;;;3.75;0.50;;;9.90;56.20;;;;;;4952812;29;20044;-87
2021/04/25 09:57:43;;;;;;;6.22;0.40;;;9.90;56.20;;;;;;4964784;28;20030;-87
2021/04/25 10:00:09;;;;;;;4.18;0.40;;;9.90;56.70;;;;;;4965735;28;20035;-87
2021/04/25 10:03:07;;;;;;;8.00;0.60;;;10.00;56.10;;;;;;4945594;28;20034;-87
2021/04/25 10:05:33;;;;;;;5.28;0.60;;;10.10;56.00;;;;;;4946992;29;20023;-87
2021/04/25 10:07:59;;;;;;;9.02;0.93;;;10.00;55.60;;;;;;4942493;28;20067;-87
2021/04/25 10:10:25;;;;;;;3.30;0.40;;;10.20;55.70;;;;;;4945262;29;20460;-87
2021/04/25 10:12:51;;;;;;;5.70;0.43;;;10.30;55.40;;;;;;4960506;28;20031;-85
2021/04/25 10:15:19;;;;;;;6.57;0.68;;;10.40;55.40;;;;;;4942965;28;20079;-85
2021/04/25 10:17:47;;;;;;;6.28;0.50;;;10.50;55.30;;;;;;4944339;29;20020;-84
2021/04/25 10:20:17;;;;;;;4.50;0.40;;;10.60;54.90;;;;;;4955824;28;20031;-84
2021/04/25 10:22:44;;;;;;;7.78;0.98;;;10.60;55.30;;;;;;4953293;29;20035;-84
2021/04/25 10:25:29;;;;;;;4.95;0.40;;;10.80;55.20;;;;;;4953081;28;20032;-84
2021/04/25 10:28:03;;;;;;;4.03;0.60;;;11.00;54.50;;;;;;4949413;29;20502;-85
2021/04/25 10:30:37;;;;;;;4.95;0.50;;;11.10;53.60;;;;;;4968545;28;20038;-84
2021/04/25 10:33:05;;;;;;;12.25;0.70;;;11.10;53.40;;;;;;4956233;29;20031;-87
2021/04/25 10:35:35;;;;;;;4.68;0.70;;;11.20;52.70;;;;;;4946594;29;20039;-87
2021/04/25 10:38:08;;;;;;;3.08;0.40;;;11.00;52.70;;;;;;4953041;28;20038;-87
2021/04/25 10:40:36;;;;;;;4.30;0.40;;;11.00;52.80;;;;;;4952969;28;20028;-86
2021/04/25 10:43:10;;;;;;;6.20;1.20;;;10.80;52.90;;;;;;4943827;28;20020;-84
2021/04/25 10:45:58;;;;;;;4.75;0.38;;;10.90;53.70;;;;;;4950505;29;20032;-84
2021/04/25 10:48:34;;;;;;;6.50;0.60;;;11.20;53.30;;;;;;4939398;28;20028;-86
2021/04/25 10:51:40;;;;;;;8.00;0.70;;;11.20;52.90;;;;;;4964995;28;20502;-85
2021/04/25 10:54:08;;;;;;;4.88;0.40;;;11.50;53.80;;;;;;4938817;29;20039;-87
2021/04/25 10:56:35;;;;;;;5.53;0.70;;;11.70;53.00;;;;;;4942479;29;20134;-85
2021/04/25 10:59:24;;;;;;;4.93;0.50;;;11.70;52.70;;;;;;4973638;28;20079;-85
2021/04/25 11:01:56;;;;;;;4.38;0.38;;;11.50;52.50;;;;;;4952334;28;20054;-85
2021/04/25 11:04:58;;;;;;;3.47;0.40;;;11.40;51.90;;;;;;4959617;28;20039;-86
2021/04/25 11:07:48;;;;;;;3.80;0.40;;;11.10;52.90;;;;;;4950862;28;20036;-87
2021/04/25 11:10:20;;;;;;;5.72;0.60;;;11.20;53.60;;;;;;4944863;28;20138;-84
2021/04/25 11:12:46;;;;;;;6.77;0.60;;;11.40;53.40;;;;;;4954525;28;20023;-85
2021/04/25 11:15:49;;;;;;;4.57;0.75;;;11.40;52.60;;;;;;4940269;28;20050;-85
2021/04/25 11:18:40;;;;;;;4.43;0.40;;;11.50;52.10;;;;;;4968743;28;20391;-85
2021/04/25 11:21:35;;;;;;;3.13;0.38;;;11.40;52.20;;;;;;4939699;29;20518;-85
2021/04/25 11:24:07;;;;;;;8.57;0.60;;;11.40;52.20;;;;;;4954956;28;20027;-85
2021/04/25 11:26:41;;;;;;;4.57;0.57;;;11.30;52.70;;;;;;4944464;28;20118;-85
2021/04/25 11:29:42;;;;;;;5.55;0.68;;;11.50;52.50;;;;;;4950988;29;20163;-85
2021/04/25 11:32:07;;;;;;;6.57;0.70;;;11.50;52.00;;;;;;4953515;28;20515;-85
2021/04/25 11:34:33;;;;;;;9.48;0.90;;;11.20;52.20;;;;;;4971802;28;20035;-84
2021/04/25 11:37:06;;;;;;;7.13;0.60;;;11.30;52.70;;;;;;4939953;28;20063;-86
2021/04/25 11:39:45;;;;;;;6.40;0.40;;;11.50;52.90;;;;;;4941703;28;20510;-85
2021/04/25 11:42:24;;;;;;;7.55;0.52;;;11.60;52.30;;;;;;4963716;28;20170;-86
2021/04/25 11:44:49;;;;;;;4.32;0.57;;;11.50;52.00;;;;;;4937417;29;20059;-85
2021/04/25 11:47:19;;;;;;;4.45;0.70;;;11.50;52.40;;;;;;4954801;29;20102;-86
2021/04/25 11:49:52;;;;;;;8.02;0.60;;;11.70;52.30;;;;;;4940921;29;20026;-85
2021/04/25 11:52:25;;;;;;;;;;;11.80;51.90;;;;;;4937721;28;20039;-85
2021/04/25 11:55:06;;;;;;;;;;;11.80;51.90;;;;;;4943006;28;19918;-85
2021/04/25 11:57:38;;;;;;;5.80;0.60;;;12.00;52.60;;;;;;4946024;28;19917;-86
2021/04/25 12:00:16;;;;;;;6.30;0.55;;;11.90;51.50;;;;;;4950718;28;20027;-86
2021/04/25 12:02:49;;;;;;;5.22;0.50;;;11.70;51.70;;;;;;4939255;29;20039;-85
2021/04/25 12:05:21;;;;;;;5.68;0.50;;;11.70;52.10;;;;;;4938752;28;20052;-85
2021/04/25 12:07:48;;;;;;;;;;;12.00;52.30;;;;;;4964317;28;20404;-86
2021/04/25 12:10:23;;;;;;;4.90;0.50;;;12.00;51.30;;;;;;4944141;29;19914;-86
2021/04/25 12:13:07;;;;;;;7.40;0.70;;;11.90;51.60;;;;;;4936907;29;20040;-86
2021/04/25 12:16:02;;;;;;;2.90;0.40;;;11.90;51.60;;;;;;4953409;28;20062;-86
2021/04/25 12:18:37;;;;;;;4.50;0.43;;;11.90;50.90;;;;;;4939236;29;20027;-86
2021/04/25 12:21:08;;;;;;;3.53;1.45;;;11.70;51.30;;;;;;4953016;28;20031;-86
2021/04/25 12:23:45;;;;;;;3.42;0.40;;;11.70;52.30;;;;;;4952235;29;20500;-85
2021/04/25 12:26:13;;;;;;;6.53;0.65;;;11.90;52.10;;;;;;4937952;29;20031;-86
2021/04/25 12:28:42;;;;;;;4.13;0.50;;;12.10;52.00;;;;;;4946858;28;20087;-86
2021/04/25 12:31:16;;;;;;;4.88;0.60;;;12.20;51.00;;;;;;4937250;29;20028;-86
2021/04/25 12:33:47;;;;;;;3.25;0.40;;;12.10;50.00;;;;;;4953202;28;20047;-86
2021/04/25 12:36:17;;;;;;;4.95;0.55;;;11.90;50.60;;;;;;4953734;28;20042;-88
2021/04/25 12:39:12;;;;;;;4.22;0.40;;;12.10;51.40;;;;;;4949932;29;20027;-88
2021/04/25 12:41:40;;;;;;;7.38;0.50;;;12.50;50.80;;;;;;4945896;29;20517;-91
2021/04/25 12:44:05;;;;;;;4.65;0.40;;;12.80;50.40;;;;;;4953950;28;20226;-90
2021/04/25 12:46:35;;;;;;;5.18;0.57;;;12.80;50.20;;;;;;4955861;28;20149;-86
2021/04/25 12:49:09;;;;;;;6.88;0.68;;;12.90;49.60;;;;;;4957905;28;20443;-88
2021/04/25 12:51:41;;;;;;;4.10;0.50;;;12.80;48.80;;;;;;4963284;28;20023;-87
2021/04/25 12:54:18;;;;;;;3.75;0.40;;;12.80;48.80;;;;;;4959776;28;20047;-87
2021/04/25 12:56:51;;;;;;;7.18;0.50;;;12.80;49.70;;;;;;4941398;29;20039;-86
2021/04/25 12:59:19;;;;;;;6.13;0.65;;;12.80;48.80;;;;;;4951409;29;20036;-86
2021/04/25 13:02:13;;;;;;;7.28;0.68;;;12.90;48.80;;;;;;4939956;29;20023;-86
2021/04/25 13:04:47;;;;;;;6.60;0.60;;;13.00;49.40;;;;;;4957210;28;20038;-87